Airfield :
LOGIN :

Register | Disclaimer

   EN    FR    IT 

 










Legend :    VFR   Marginal VFR   IFR   Intensive IFR   Very Intensive IFR
Visi :
Ceiling :
>= 8 km
>= 3000ft
5 to 8 km
1000 to 3000 ft
1500m to 5 km
500 to 1000 ft
800 to 1500m
200 to 500 ft
< 800m
< 200 ft
Symbols :   Thunderstorms  Fog  Heavy snow  Heavy precipitations  Wind > 20 kt
SIGMETs :     Misc.  Thunderstorms  Icing  Turbulence  Mountain Waves  Volcanic Ashes






- Airport Elevation : 12 ft
- IATA code : BCN


LEBL - Barcelone

CURRENT METAR :
  • 012300Z 32009KT 9999 SCT022 10/06 Q1013 NOSIG

EXPIRED METARs :
  • 012230Z 32010KT 9999 FEW025 10/06 Q1014 NOSIG
  • 012200Z 33007KT 9999 FEW030 10/06 Q1014 NOSIG
  • 012130Z 33008KT 9999 FEW030 10/06 Q1014 NOSIG
  • 012100Z 34009KT 9999 FEW030 10/06 Q1014 NOSIG
  • 012030Z 32008KT 9999 FEW018 10/06 Q1014 NOSIG

TAF TAF LEBL
Valid from the 02 at 00:00 until the 03 at 00:00 UTC


012300Z 0200/0224 34009KT 9999 FEW015 TX15/0213Z TN07/0206Z
PROB30
TEMPO 0200/0206 4000 RA BKN010
BECMG 0208/0210 22010KT
BECMG 0215/0217 36007KT



MET'MAP, your aeronautical weather chart ! - Copyright ORBIFLY December 2007 - Disclaimer

ORBIFLY MET'MAP TEAM :

Programming & Development : Alexandra Zaïnal
Concept & original design : Baudouin d'Aumeries
Assistance for programming : Marc-Olivier Méhu
Technical & hardware support : Manuel Goepfert

Contact : metmap@orbifly.com




SOURCES & CREDITS :

   NOAA